This is the latest recevied weather packets stored in our database for station/object N3LF. If no packets are shown the sender has not sent any weather packets the latest 10 day(s).
| Time | Temp. | Humidity | Pressure | Rain* | Wind** | Luminosity | Snow |
|---|---|---|---|---|---|---|---|
| 1777919994 | 26.67° C | 44% | 1013.6 hPa | 0 mm | - | 747 W/m² | - |
| 1777919692 | 26.11° C | 44% | 1013.7 hPa | 0 mm | - | 754 W/m² | - |
| 1777919390 | 26.67° C | 45% | 1013.9 hPa | 0 mm | - | 468 W/m² | - |
| 1777919086 | 26.67° C | 44% | 1013.7 hPa | 0 mm | - | 747 W/m² | - |
| 1777918784 | 26.11° C | 49% | 1014 hPa | 0 mm | - | 752 W/m² | - |
| 1777918481 | 26.67° C | 45% | 1014 hPa | 0 mm | - | 743 W/m² | - |
| 1777918179 | 26.67° C | 44% | 1014 hPa | 0 mm | - | 757 W/m² | - |
| 1777917878 | 26.11° C | 46% | 1014.1 hPa | 0 mm | - | 752 W/m² | - |
| 1777917576 | 26.11° C | 46% | 1014.1 hPa | 0 mm | - | 740 W/m² | - |
| 1777917272 | 26.67° C | 46% | 1014.1 hPa | 0 mm | - | 734 W/m² | - |
| 1777916970 | 26.11° C | 46% | 1014.2 hPa | 0 mm | - | 731 W/m² | - |
| 1777916667 | 26.11° C | 46% | 1014.2 hPa | 0 mm | - | 735 W/m² | - |
| 1777916365 | 26.11° C | 46% | 1014.2 hPa | 0 mm | - | 737 W/m² | - |
| 1777916061 | 26.11° C | 47% | 1014.2 hPa | 0 mm | - | 734 W/m² | - |
| 1777915759 | 26.67° C | 47% | 1014.3 hPa | 0 mm | - | 735 W/m² | - |
| 1777915454 | 26.11° C | 47% | 1014.4 hPa | 0 mm | - | 734 W/m² | - |
| 1777915151 | 25.56° C | 47% | 1014.5 hPa | 0 mm | - | 735 W/m² | - |
| 1777914848 | 25° C | 48% | 1014.5 hPa | 0 mm | - | 735 W/m² | - |
| 1777914545 | 25.56° C | 48% | 1014.6 hPa | 0 mm | - | 589 W/m² | - |
| 1777914241 | 25.56° C | 48% | 1014.6 hPa | 0 mm | - | 666 W/m² | - |
| 1777913938 | 25.56° C | 48% | 1014.5 hPa | 0 mm | - | 734 W/m² | - |
| 1777913635 | 25° C | 47% | 1014.8 hPa | 0 mm | - | 705 W/m² | - |
| 1777913331 | 25° C | 50% | 1014.7 hPa | 0 mm | - | 653 W/m² | - |
| 1777913029 | 25° C | 49% | 1014.7 hPa | 0 mm | - | 724 W/m² | - |
| 1777912724 | 25° C | 49% | 1014.9 hPa | 0 mm | - | 719 W/m² | - |
* Rain latest hour (hover to see other rain measurements)
** Current wind speed in m/s (hover to see current wind gust speed)